createdAt,value
2018-02-15T00:01:55.930Z,5.03
2018-02-15T00:06:54.398Z,5.00
2018-02-15T00:09:23.607Z,5.10
2018-02-15T00:11:52.887Z,4.73
2018-02-15T00:14:21.862Z,4.95
2018-02-15T00:16:50.917Z,5.37
2018-02-15T00:21:49.013Z,4.67
2018-02-15T00:29:12.811Z,4.20
2018-02-15T00:31:42.391Z,4.23
2018-02-15T00:34:12.654Z,4.20
2018-02-15T00:36:41.761Z,4.07
2018-02-15T00:39:10.745Z,3.60
2018-02-15T00:41:40.041Z,3.60
2018-02-15T00:49:06.749Z,4.37
2018-02-15T00:51:35.799Z,4.03
2018-02-15T00:54:04.815Z,3.80
2018-02-15T00:56:33.952Z,4.33
2018-02-15T01:01:32.346Z,3.80
2018-02-15T01:04:01.887Z,4.13
2018-02-15T01:06:30.907Z,3.97
2018-02-15T01:11:29.386Z,4.10
2018-02-15T01:16:27.468Z,3.83
2018-02-15T01:18:56.790Z,3.60
2018-02-15T01:21:26.227Z,3.30
2018-02-15T01:23:55.606Z,3.47
2018-02-15T01:26:25.006Z,3.27
2018-02-15T01:31:23.880Z,3.70
2018-02-15T01:33:53.502Z,3.00
2018-02-15T01:36:22.910Z,3.93
2018-02-15T01:41:20.784Z,3.60
2018-02-15T01:43:49.977Z,3.37
2018-02-15T01:48:49.475Z,3.40
2018-02-15T01:51:19.489Z,3.83
2018-02-15T01:53:49.505Z,3.57
2018-02-15T01:56:19.418Z,3.57
2018-02-15T01:58:48.821Z,3.27
2018-02-15T02:01:18.329Z,3.27
2018-02-15T02:03:47.884Z,2.80
2018-02-15T02:06:17.447Z,3.17
2018-02-15T02:08:46.894Z,3.00
2018-02-15T02:16:13.891Z,3.30
2018-02-15T02:18:42.916Z,3.50
2018-02-15T02:21:12.229Z,3.20
2018-02-15T02:23:41.807Z,3.40
2018-02-15T02:26:10.870Z,3.10
2018-02-15T02:35:55.705Z,2.63
2018-02-15T02:38:25.447Z,2.77
2018-02-15T02:40:55.373Z,2.53
2018-02-15T02:43:24.885Z,3.00
2018-02-15T02:45:54.232Z,3.10
2018-02-15T02:48:24.214Z,3.13
2018-02-15T02:50:53.997Z,3.47
2018-02-15T02:53:23.474Z,2.80
2018-02-15T02:55:53.429Z,3.20
2018-02-15T02:58:22.920Z,2.73
2018-02-15T03:03:21.734Z,2.90
2018-02-15T03:05:50.887Z,3.20
2018-02-15T03:08:20.594Z,3.00
2018-02-15T03:10:49.719Z,3.47
2018-02-15T03:13:19.453Z,2.70
2018-02-15T03:15:48.901Z,2.80
2018-02-15T03:18:18.684Z,2.80
2018-02-15T03:20:48.301Z,2.63
2018-02-15T03:23:18.488Z,2.90
2018-02-15T03:25:47.882Z,2.60
2018-02-15T03:29:54.763Z,2.87
2018-02-15T03:32:24.486Z,3.30
2018-02-15T03:34:54.523Z,2.87
2018-02-15T03:37:24.387Z,3.20
2018-02-15T03:39:54.186Z,2.90
2018-02-15T03:42:23.931Z,2.90
2018-02-15T03:49:52.458Z,2.95
2018-02-15T03:52:22.207Z,3.00
2018-02-15T03:54:51.950Z,3.00
2018-02-15T04:01:27.727Z,2.50
2018-02-15T04:03:57.049Z,2.90
2018-02-15T04:06:26.926Z,2.80
2018-02-15T04:11:25.194Z,2.90
2018-02-15T04:13:54.808Z,3.10
2018-02-15T04:16:24.479Z,3.37
2018-02-15T04:18:53.804Z,2.77
2018-02-15T04:21:23.466Z,2.53
2018-02-15T04:23:52.726Z,2.80
2018-02-15T04:26:21.928Z,2.67
2018-02-15T04:31:36.678Z,2.47
2018-02-15T04:34:06.346Z,2.63
2018-02-15T04:36:35.779Z,3.07
2018-02-15T04:39:04.934Z,2.70
2018-02-15T04:44:03.397Z,2.97
2018-02-15T04:46:33.071Z,2.90
2018-02-15T04:51:31.381Z,2.90
2018-02-15T04:54:01.202Z,2.70
2018-02-15T04:56:30.513Z,2.90
2018-02-15T04:58:59.760Z,3.20
2018-02-15T05:01:28.927Z,3.00
2018-02-15T05:06:27.060Z,3.00
2018-02-15T05:11:24.883Z,2.83
2018-02-15T05:17:52.906Z,2.63
2018-02-15T05:24:09.912Z,2.43
2018-02-15T05:31:35.874Z,2.70
2018-02-15T05:34:04.838Z,3.17
2018-02-15T05:36:34.493Z,2.77
2018-02-15T05:39:03.674Z,2.70
2018-02-15T05:41:32.829Z,2.80
2018-02-15T05:44:02.199Z,2.90
2018-02-15T05:46:31.213Z,2.60
2018-02-15T05:49:01.259Z,2.80
2018-02-15T05:51:30.638Z,2.63
2018-02-15T05:53:59.815Z,3.17
2018-02-15T05:56:29.197Z,3.03
2018-02-15T05:58:58.681Z,2.80
2018-02-15T06:01:28.192Z,2.90
2018-02-15T06:03:57.815Z,3.07
2018-02-15T06:06:27.205Z,2.87
2018-02-15T06:08:56.912Z,2.60
2018-02-15T06:13:55.222Z,2.93
2018-02-15T06:16:24.946Z,2.40
2018-02-15T06:21:23.075Z,2.50
2018-02-15T06:28:50.335Z,3.13
2018-02-15T06:31:19.778Z,3.27
2018-02-15T06:33:49.364Z,3.10
2018-02-15T06:36:19.270Z,3.33
2018-02-15T06:38:49.169Z,2.90
2018-02-15T06:41:18.792Z,3.57
2018-02-15T06:43:48.171Z,3.27
2018-02-15T06:46:17.369Z,3.30
2018-02-15T06:48:46.751Z,3.63
2018-02-15T06:51:16.369Z,3.20
2018-02-15T06:53:46.365Z,3.27
2018-02-15T06:56:15.896Z,3.00
2018-02-15T06:58:45.418Z,3.00
2018-02-15T07:01:14.910Z,3.80
2018-02-15T07:06:13.229Z,6.93
2018-02-15T07:09:18.173Z,8.73
2018-02-15T07:14:17.372Z,7.87
2018-02-15T07:16:47.239Z,8.17
2018-02-15T07:21:46.819Z,6.60
2018-02-15T07:24:16.434Z,6.13
2018-02-15T07:26:46.457Z,5.80
2018-02-15T07:29:16.225Z,6.30
2018-02-15T07:31:45.724Z,5.90
2018-02-15T07:34:15.451Z,5.47
2018-02-15T07:36:45.778Z,5.73
2018-02-15T07:39:15.235Z,5.80
2018-02-15T07:41:44.881Z,7.80
2018-02-15T07:44:13.919Z,8.93
2018-02-15T07:49:12.437Z,8.20
2018-02-15T07:51:41.744Z,7.77
2018-02-15T07:54:11.450Z,6.23
2018-02-15T07:56:41.188Z,6.97
2018-02-15T07:59:10.909Z,6.40
2018-02-15T08:04:09.364Z,6.60
2018-02-15T08:06:38.918Z,7.47
2018-02-15T08:15:15.909Z,8.90
2018-02-15T08:20:13.697Z,13.20
2018-02-15T08:22:42.796Z,12.80
2018-02-15T08:25:12.460Z,13.23
2018-02-15T08:27:41.896Z,13.70
2018-02-15T08:30:11.557Z,13.57
2018-02-15T08:32:41.220Z,12.40
2018-02-15T08:37:39.230Z,11.87
2018-02-15T08:40:08.738Z,12.43
2018-02-15T08:42:37.936Z,11.67
2018-02-15T08:47:36.394Z,19.07
2018-02-15T08:50:06.215Z,17.83
2018-02-15T08:52:35.816Z,17.50
2018-02-15T08:55:04.925Z,16.77
2018-02-15T09:00:03.073Z,20.97
2018-02-15T09:06:17.887Z,20.40
2018-02-15T09:08:47.589Z,19.70
2018-02-15T09:11:16.938Z,22.47
2018-02-15T09:16:03.930Z,22.30
2018-02-15T09:21:02.431Z,22.03
2018-02-15T09:23:31.681Z,23.90
2018-02-15T09:26:00.799Z,21.10
2018-02-15T09:28:30.202Z,18.77
2018-02-15T09:30:59.956Z,17.85
2018-02-15T09:37:28.179Z,13.87
2018-02-15T09:39:57.694Z,12.80
2018-02-15T09:42:26.898Z,12.23
2018-02-15T09:44:56.205Z,12.07
2018-02-15T09:49:11.986Z,10.40
2018-02-15T09:51:40.891Z,7.90
2018-02-15T09:54:10.334Z,8.20
2018-02-15T10:00:24.501Z,7.30
2018-02-15T10:05:31.411Z,7.83
2018-02-15T10:10:29.432Z,7.73
2018-02-15T10:13:00.725Z,7.80
2018-02-15T10:15:29.771Z,7.53
2018-02-15T10:17:59.229Z,7.50
2018-02-15T10:20:28.457Z,7.97
2018-02-15T10:22:57.710Z,9.30
2018-02-15T10:25:26.788Z,10.40
2018-02-15T10:27:55.769Z,10.23
2018-02-15T10:30:24.767Z,9.90
2018-02-15T10:32:53.996Z,10.00
2018-02-15T10:37:52.199Z,10.33
2018-02-15T10:40:21.978Z,9.60
2018-02-15T10:42:51.475Z,9.60
2018-02-15T10:45:21.183Z,9.40
2018-02-15T10:50:19.061Z,8.60
2018-02-15T10:55:16.799Z,8.37
2018-02-15T10:57:46.413Z,8.53
2018-02-15T11:00:16.649Z,7.50
2018-02-15T11:02:45.881Z,8.10
2018-02-15T11:08:48.507Z,16.80
2018-02-15T11:13:07.897Z,26.87
2018-02-15T11:18:05.774Z,29.30
2018-02-15T11:20:34.800Z,28.53
2018-02-15T11:23:03.826Z,27.60
2018-02-15T11:25:33.204Z,25.73
2018-02-15T11:28:03.423Z,23.20
2018-02-15T11:30:32.816Z,22.53
2018-02-15T11:33:01.883Z,19.90
2018-02-15T11:35:31.195Z,20.27
2018-02-15T11:38:00.560Z,18.83
2018-02-15T11:40:30.715Z,19.10
2018-02-15T11:42:59.864Z,18.87
2018-02-15T11:45:29.219Z,18.90
2018-02-15T11:47:58.784Z,17.97
2018-02-15T11:50:27.795Z,18.20
2018-02-15T11:52:56.806Z,16.97
2018-02-15T11:55:25.929Z,17.93
2018-02-15T12:00:24.421Z,15.93
2018-02-15T12:06:39.432Z,14.83
2018-02-15T12:09:09.201Z,14.47
2018-02-15T12:11:38.664Z,15.23
2018-02-15T12:14:07.872Z,15.77
2018-02-15T12:16:37.613Z,15.13
2018-02-15T12:19:07.226Z,15.23
2018-02-15T12:21:36.644Z,14.50
2018-02-15T12:24:06.589Z,14.60
2018-02-15T12:26:36.044Z,14.27
2018-02-15T12:31:34.346Z,15.13
2018-02-15T12:34:03.905Z,13.87
2018-02-15T12:36:33.379Z,13.30
2018-02-15T12:39:03.406Z,13.17
2018-02-15T12:41:33.208Z,13.17
2018-02-15T12:44:03.271Z,12.10
2018-02-15T12:46:32.908Z,12.47
2018-02-15T12:51:31.464Z,13.10
2018-02-15T12:54:01.508Z,13.20
2018-02-15T12:59:13.211Z,12.53
2018-02-15T13:01:42.779Z,12.45
2018-02-15T13:06:06.864Z,12.47
2018-02-15T13:08:36.372Z,11.83
2018-02-15T13:11:06.379Z,11.87
2018-02-15T13:13:35.937Z,11.50
2018-02-15T13:18:40.180Z,12.13
2018-02-15T13:21:10.194Z,11.50
2018-02-15T13:23:39.559Z,11.40
2018-02-15T13:26:08.789Z,11.43
2018-02-15T13:28:39.506Z,11.13
2018-02-15T13:31:08.806Z,10.67
2018-02-15T13:33:37.816Z,11.80
2018-02-15T13:36:07.225Z,11.60
2018-02-15T13:38:36.816Z,10.90
2018-02-15T13:41:05.819Z,11.33
2018-02-15T13:43:34.801Z,10.77
2018-02-15T13:48:13.792Z,10.13
2018-02-15T13:51:14.776Z,13.20
2018-02-15T13:53:43.861Z,14.47
2018-02-15T13:56:13.507Z,13.90
2018-02-15T13:58:42.814Z,13.63
2018-02-15T14:01:12.337Z,14.17
2018-02-15T14:03:41.875Z,14.00
2018-02-15T14:06:53.492Z,13.53
2018-02-15T14:09:23.404Z,14.37
2018-02-15T14:11:52.916Z,13.83
2018-02-15T14:16:51.262Z,12.40
2018-02-15T14:19:21.231Z,11.77
2018-02-15T14:22:09.919Z,12.57
2018-02-15T14:27:08.334Z,11.80
2018-02-15T14:29:37.812Z,11.00
2018-02-15T14:32:07.484Z,10.07
2018-02-15T14:34:36.833Z,10.53
2018-02-15T14:37:06.330Z,10.20
2018-02-15T14:39:35.904Z,10.63
2018-02-15T14:45:52.764Z,10.33
2018-02-15T14:48:21.692Z,9.87
2018-02-15T14:50:50.817Z,9.77
2018-02-15T14:53:19.867Z,10.23
2018-02-15T14:55:48.732Z,9.60
2018-02-15T14:58:17.817Z,9.33
2018-02-15T15:00:46.716Z,8.87
2018-02-15T15:03:16.361Z,9.23
2018-02-15T15:05:45.790Z,8.77
2018-02-15T15:08:14.878Z,8.47
2018-02-15T15:10:43.855Z,8.53
2018-02-15T15:14:34.398Z,8.50
2018-02-15T15:19:41.505Z,8.70
2018-02-15T15:22:10.744Z,8.50
2018-02-15T15:24:39.745Z,8.00
2018-02-15T15:27:08.774Z,8.30
2018-02-15T15:29:37.803Z,8.27
2018-02-15T15:32:06.808Z,7.70
2018-02-15T15:34:35.724Z,8.90
2018-02-15T15:37:04.893Z,8.50
2018-02-15T15:40:00.532Z,7.70
2018-02-15T15:42:30.402Z,7.83
2018-02-15T15:44:59.781Z,7.13
2018-02-15T15:50:55.193Z,7.80
2018-02-15T15:53:24.560Z,7.27
2018-02-15T15:55:53.874Z,7.93
2018-02-15T15:58:22.926Z,7.23
2018-02-15T16:03:21.008Z,7.80
2018-02-15T16:08:19.049Z,7.30
2018-02-15T16:13:16.871Z,7.33
2018-02-15T16:15:46.465Z,7.70
2018-02-15T16:18:15.944Z,7.13
2018-02-15T16:23:13.872Z,7.40
2018-02-15T16:25:43.191Z,7.23
2018-02-15T16:28:13.199Z,6.80
2018-02-15T16:30:42.577Z,7.10
2018-02-15T16:33:12.201Z,7.33
2018-02-15T16:35:41.805Z,6.40
2018-02-15T16:38:11.189Z,7.27
2018-02-15T16:40:40.921Z,6.60
2018-02-15T16:46:06.253Z,6.37
2018-02-15T16:48:35.608Z,6.20
2018-02-15T16:51:05.361Z,6.53
2018-02-15T16:53:34.761Z,6.53
2018-02-15T16:56:04.258Z,6.37
2018-02-15T16:58:33.881Z,6.60
2018-02-15T17:01:03.344Z,6.20
2018-02-15T17:03:32.888Z,6.53
2018-02-15T17:06:01.815Z,7.17
2018-02-15T17:08:30.961Z,8.20
2018-02-15T17:13:29.221Z,10.50
2018-02-15T17:15:58.682Z,11.30
2018-02-15T17:18:28.228Z,11.67
2018-02-15T17:20:57.633Z,11.83
2018-02-15T17:23:26.795Z,12.77
2018-02-15T17:25:56.219Z,12.87
2018-02-15T17:28:25.556Z,12.57
2018-02-15T17:30:54.827Z,12.90
2018-02-15T17:33:24.006Z,13.83
2018-02-15T17:38:21.969Z,13.67
2018-02-15T17:42:17.930Z,14.87
2018-02-15T17:47:16.643Z,15.00
2018-02-15T17:52:22.646Z,18.70
2018-02-15T17:54:51.936Z,19.70
2018-02-15T17:59:23.931Z,19.60
2018-02-15T18:04:27.245Z,18.30
2018-02-15T18:07:49.786Z,16.43
2018-02-15T18:11:47.903Z,15.13
2018-02-15T18:16:46.193Z,15.07
2018-02-15T18:19:15.929Z,14.23
2018-02-15T18:22:20.807Z,14.67
2018-02-15T18:24:50.224Z,13.40
2018-02-15T18:27:20.206Z,14.07
2018-02-15T18:29:49.591Z,13.25
2018-02-15T18:32:18.904Z,13.73
2018-02-15T18:34:48.326Z,13.40
2018-02-15T18:37:18.260Z,12.73
2018-02-15T18:39:47.927Z,12.77
2018-02-15T18:44:46.240Z,12.40
2018-02-15T18:50:37.668Z,14.67
2018-02-15T18:53:07.469Z,15.47
2018-02-15T18:55:37.195Z,15.33
2018-02-15T18:58:06.565Z,14.13
2018-02-15T19:00:36.214Z,13.80
2018-02-15T19:03:05.719Z,13.95
2018-02-15T19:05:34.813Z,13.00
2018-02-15T19:08:04.343Z,12.77
2018-02-15T19:10:33.928Z,13.27
2018-02-15T19:15:31.719Z,12.67
2018-02-15T19:18:00.900Z,12.50
2018-02-15T19:20:29.899Z,12.00
2018-02-15T19:22:59.230Z,12.60
2018-02-15T19:25:28.880Z,14.27
2018-02-15T19:27:58.215Z,12.70
2018-02-15T19:30:27.224Z,12.70
2018-02-15T19:32:56.633Z,13.40
2018-02-15T19:35:26.012Z,12.63
2018-02-15T19:40:24.232Z,12.13
2018-02-15T19:42:53.654Z,11.87
2018-02-15T19:45:22.924Z,11.53
2018-02-15T19:50:21.208Z,10.60
2018-02-15T19:52:50.807Z,10.87
2018-02-15T19:55:19.825Z,10.27
2018-02-15T19:57:49.378Z,10.77
2018-02-15T20:00:18.662Z,10.03
2018-02-15T20:02:48.393Z,10.40
2018-02-15T20:05:17.906Z,9.97
2018-02-15T20:10:15.813Z,9.67
2018-02-15T20:12:44.896Z,9.80
2018-02-15T20:17:43.481Z,11.10
2018-02-15T20:20:24.760Z,12.80
2018-02-15T20:22:54.185Z,13.17
2018-02-15T20:25:23.604Z,13.10
2018-02-15T20:27:58.707Z,11.87
2018-02-15T20:34:59.369Z,10.17
2018-02-15T20:37:34.746Z,11.40
2018-02-15T20:40:09.741Z,10.07
2018-02-15T20:44:18.208Z,10.10
2018-02-15T20:46:47.504Z,10.50
2018-02-15T20:49:22.789Z,9.50
2018-02-15T20:51:57.628Z,9.53
2018-02-15T20:54:32.735Z,9.07
2018-02-15T20:57:01.893Z,9.33
2018-02-15T20:59:31.381Z,9.45
2018-02-15T21:02:00.587Z,9.50
2018-02-15T21:04:29.669Z,8.83
2018-02-15T21:09:16.860Z,8.20
2018-02-15T21:13:07.802Z,7.93
2018-02-15T21:15:37.428Z,7.57
2018-02-15T21:18:07.176Z,8.47
2018-02-15T21:20:36.394Z,8.15
2018-02-15T21:23:06.183Z,8.10
2018-02-15T21:25:35.649Z,8.20
2018-02-15T21:28:04.917Z,7.30
2018-02-15T21:33:04.357Z,7.67
2018-02-15T21:35:33.693Z,7.90
2018-02-15T21:38:03.325Z,7.97
2018-02-15T21:40:32.566Z,6.90
2018-02-15T21:43:01.916Z,6.70
2018-02-15T21:50:28.931Z,7.00
2018-02-15T21:55:27.469Z,6.20
2018-02-15T21:57:56.821Z,6.63
2018-02-15T22:02:05.715Z,6.23
2018-02-15T22:04:34.789Z,6.97
2018-02-15T22:07:03.925Z,6.13
2018-02-15T22:12:01.818Z,6.40
2018-02-15T22:14:30.918Z,6.47
2018-02-15T22:22:10.734Z,11.37
2018-02-15T22:24:39.741Z,10.13
2018-02-15T22:27:08.752Z,9.40
2018-02-15T22:29:37.691Z,9.47
2018-02-15T22:32:06.696Z,8.83
2018-02-15T22:34:35.699Z,8.40
2018-02-15T22:37:04.726Z,8.37
2018-02-15T22:39:33.705Z,8.17
2018-02-15T22:42:02.651Z,8.80
2018-02-15T22:44:31.721Z,7.33
2018-02-15T22:47:00.931Z,8.20
2018-02-15T22:51:58.969Z,7.37
2018-02-15T22:56:57.227Z,6.50
2018-02-15T22:59:26.755Z,6.20
2018-02-15T23:01:56.344Z,6.53
2018-02-15T23:04:25.743Z,6.50
2018-02-15T23:06:56.421Z,6.13
2018-02-15T23:09:25.683Z,5.77
2018-02-15T23:11:55.443Z,6.50
2018-02-15T23:14:25.213Z,6.00
2018-02-15T23:16:54.683Z,6.10
2018-02-15T23:21:47.795Z,6.40
2018-02-15T23:24:17.517Z,6.00
2018-02-15T23:26:47.449Z,5.40
2018-02-15T23:29:16.805Z,5.70
2018-02-15T23:31:46.362Z,5.90
2018-02-15T23:34:16.184Z,5.37
2018-02-15T23:36:45.619Z,5.43
2018-02-15T23:39:15.391Z,4.97
2018-02-15T23:41:45.417Z,5.40
2018-02-15T23:44:15.424Z,5.60
2018-02-15T23:49:16.479Z,4.87
2018-02-15T23:51:45.690Z,5.10
2018-02-15T23:54:15.015Z,7.60
2018-02-15T23:59:12.883Z,8.03
